Time;durP1;ratioP1;P1;durP2;ratioP2;P2;SDS_P1;SDS_P2;PMS_P1;PMS_P2;Temp;Humidity;BMP_temperature;BMP_pressure;BME280_temperature;BME280_humidity;BME280_pressure;Samples;Min_cycle;Max_cycle;Signal;HPM_P1;HPM_P2
2023/02/09 00:00:21;;;;;;;13.80;6.97;;;4.00;57.30;;;;;;5048754;28;20028;-71
2023/02/09 00:02:47;;;;;;;13.55;7.95;;;4.00;57.40;;;;;;5040429;28;20032;-71
2023/02/09 00:05:12;;;;;;;17.38;8.18;;;3.90;57.20;;;;;;5050549;28;20033;-72
2023/02/09 00:07:38;;;;;;;13.38;7.07;;;3.90;57.90;;;;;;5050259;28;20104;-71
2023/02/09 00:10:04;;;;;;;16.52;7.45;;;3.90;57.80;;;;;;5046582;28;20040;-71
2023/02/09 00:15:14;;;;;;;15.43;8.95;;;3.90;58.50;;;;;;5041411;28;20040;-72
2023/02/09 00:17:39;;;;;;;14.32;8.82;;;3.90;58.80;;;;;;5049716;28;20021;-72
2023/02/09 00:20:06;;;;;;;15.70;7.70;;;3.90;59.00;;;;;;5048855;28;20017;-72
2023/02/09 00:22:32;;;;;;;13.93;7.95;;;3.90;58.80;;;;;;5049573;28;20037;-72
2023/02/09 00:24:58;;;;;;;15.82;8.10;;;3.80;58.60;;;;;;5049798;28;20095;-71
2023/02/09 00:27:24;;;;;;;16.20;7.80;;;3.80;58.60;;;;;;5056104;28;20965;-72
2023/02/09 00:29:49;;;;;;;12.93;7.03;;;3.80;58.80;;;;;;5049318;28;20027;-73
2023/02/09 00:32:16;;;;;;;18.25;7.35;;;3.70;58.60;;;;;;5029836;28;20068;-71
2023/02/09 00:34:41;;;;;;;16.75;7.60;;;3.70;59.20;;;;;;5046839;28;20021;-71
2023/02/09 00:37:07;;;;;;;17.17;8.55;;;3.70;59.30;;;;;;5050034;28;20529;-71
2023/02/09 00:39:32;;;;;;;15.18;7.32;;;3.70;59.90;;;;;;5049890;28;20025;-71
2023/02/09 00:42:07;;;;;;;16.83;7.93;;;3.70;59.60;;;;;;5032446;28;20025;-72
2023/02/09 00:44:37;;;;;;;14.05;7.47;;;3.70;59.70;;;;;;5042835;28;20083;-71
2023/02/09 00:47:04;;;;;;;13.68;7.32;;;3.70;59.30;;;;;;5044087;28;20052;-71
2023/02/09 00:49:30;;;;;;;14.30;8.27;;;3.70;59.50;;;;;;5040407;28;21260;-72
2023/02/09 00:51:56;;;;;;;13.60;7.43;;;3.60;59.80;;;;;;5048740;28;20029;-71
2023/02/09 00:54:21;;;;;;;18.50;7.82;;;3.60;59.80;;;;;;5049426;28;20021;-71
2023/02/09 00:56:48;;;;;;;15.65;8.32;;;3.60;59.80;;;;;;5050805;28;20017;-71
2023/02/09 00:59:14;;;;;;;17.70;8.25;;;3.60;59.80;;;;;;5053832;28;20368;-71
2023/02/09 01:01:40;;;;;;;15.77;8.23;;;3.60;60.90;;;;;;5048666;28;20039;-71
2023/02/09 01:04:06;;;;;;;16.40;8.82;;;3.60;60.50;;;;;;5052132;28;20459;-71
2023/02/09 01:06:32;;;;;;;16.05;8.55;;;3.50;60.80;;;;;;5053459;28;20017;-71
2023/02/09 01:08:58;;;;;;;16.25;7.45;;;3.50;61.10;;;;;;5052560;28;20025;-71
2023/02/09 01:11:26;;;;;;;18.83;8.55;;;3.50;61.70;;;;;;5053105;28;20071;-70
2023/02/09 01:13:55;;;;;;;14.90;8.88;;;3.50;62.30;;;;;;5053529;28;20024;-71
2023/02/09 01:16:21;;;;;;;18.17;8.05;;;3.50;62.30;;;;;;5053402;28;20025;-72
2023/02/09 01:18:46;;;;;;;15.23;8.20;;;3.50;62.50;;;;;;5053686;28;20025;-71
2023/02/09 01:21:15;;;;;;;16.15;8.02;;;3.40;62.80;;;;;;5050585;28;20483;-72
2023/02/09 01:23:41;;;;;;;16.13;8.25;;;3.40;62.80;;;;;;5053373;28;20036;-72
2023/02/09 01:26:08;;;;;;;17.35;8.95;;;3.40;62.90;;;;;;5051631;28;20394;-70
2023/02/09 01:28:35;;;;;;;15.63;8.82;;;3.40;63.10;;;;;;5053034;28;20052;-72
2023/02/09 01:31:01;;;;;;;14.50;8.13;;;3.40;62.70;;;;;;5051691;28;20486;-71
2023/02/09 01:33:26;;;;;;;14.38;8.98;;;3.30;62.10;;;;;;5053628;28;20032;-72
2023/02/09 01:36:03;;;;;;;15.00;8.25;;;3.30;62.20;;;;;;5051440;28;20473;-70
2023/02/09 01:38:29;;;;;;;15.57;7.68;;;3.30;63.40;;;;;;5052342;28;20044;-72
2023/02/09 01:40:55;;;;;;;15.25;8.43;;;3.20;63.90;;;;;;5047559;28;20395;-72
2023/02/09 01:43:21;;;;;;;15.45;7.88;;;3.20;63.50;;;;;;5044845;28;20028;-75
2023/02/09 01:45:49;;;;;;;13.88;8.02;;;3.20;64.00;;;;;;5051158;28;20028;-71
2023/02/09 01:48:19;;;;;;;14.07;7.53;;;3.10;64.00;;;;;;5052689;28;20013;-70
2023/02/09 01:50:48;;;;;;;14.97;7.30;;;3.10;64.00;;;;;;5049057;28;20032;-70
2023/02/09 01:53:16;;;;;;;13.70;7.32;;;3.10;63.20;;;;;;5051430;28;20017;-71
2023/02/09 01:55:55;;;;;;;16.58;8.45;;;3.10;63.70;;;;;;5051084;28;20025;-70
2023/02/09 01:58:24;;;;;;;14.77;7.40;;;3.10;64.00;;;;;;5051548;28;20037;-71
2023/02/09 02:00:50;;;;;;;14.07;7.68;;;3.10;62.80;;;;;;5049163;28;20028;-71
2023/02/09 02:03:20;;;;;;;13.57;7.10;;;3.00;63.20;;;;;;5050677;28;20032;-71
2023/02/09 02:05:49;;;;;;;17.55;8.30;;;3.00;62.40;;;;;;5050592;28;20025;-71
2023/02/09 02:08:38;;;;;;;11.63;6.50;;;3.00;62.70;;;;;;5045987;28;20100;-72
2023/02/09 02:11:05;;;;;;;14.20;7.90;;;2.90;62.20;;;;;;5051533;28;20329;-71
2023/02/09 02:13:30;;;;;;;15.88;8.93;;;3.00;63.10;;;;;;5047246;28;20036;-72
2023/02/09 02:16:13;;;;;;;16.73;8.10;;;2.90;63.70;;;;;;5051414;28;20479;-71
2023/02/09 02:19:00;;;;;;;14.95;7.75;;;2.90;63.90;;;;;;5050637;28;20025;-71
2023/02/09 02:22:07;;;;;;;12.25;7.57;;;2.90;63.40;;;;;;5050028;28;20060;-71
2023/02/09 02:24:52;;;;;;;12.48;7.38;;;2.90;63.90;;;;;;5042062;28;20124;-72
2023/02/09 02:27:45;;;;;;;13.70;7.60;;;2.90;62.80;;;;;;5054878;28;20340;-71
2023/02/09 02:30:18;;;;;;;12.57;6.85;;;2.80;62.10;;;;;;5052174;28;20029;-71
2023/02/09 02:32:59;;;;;;;17.77;8.55;;;2.80;62.00;;;;;;5051520;28;20461;-71
2023/02/09 02:35:40;;;;;;;13.13;7.30;;;2.80;61.90;;;;;;5050926;28;20551;-72
2023/02/09 02:38:34;;;;;;;14.00;7.10;;;2.70;62.40;;;;;;5051896;28;20021;-71
2023/02/09 02:41:16;;;;;;;12.32;6.78;;;2.70;62.10;;;;;;5048775;28;20053;-72
2023/02/09 02:44:08;;;;;;;13.52;7.63;;;2.70;62.60;;;;;;5045426;28;20025;-73
2023/02/09 02:46:42;;;;;;;15.80;8.63;;;2.60;62.50;;;;;;5047567;28;20021;-70
2023/02/09 02:49:38;;;;;;;14.80;7.25;;;2.70;63.00;;;;;;5050848;28;20017;-70
2023/02/09 02:52:07;;;;;;;13.73;7.43;;;2.60;62.80;;;;;;5052002;28;20025;-70
2023/02/09 02:54:45;;;;;;;13.82;8.25;;;2.60;63.20;;;;;;5050222;28;20435;-71
2023/02/09 02:57:16;;;;;;;12.98;7.55;;;2.60;63.40;;;;;;5051551;28;20032;-71
2023/02/09 02:59:49;;;;;;;15.73;7.55;;;2.60;63.90;;;;;;5051104;28;20391;-71
2023/02/09 03:02:29;;;;;;;16.63;7.30;;;2.60;63.40;;;;;;5033390;28;20103;-71
2023/02/09 03:04:56;;;;;;;13.13;7.07;;;2.60;62.50;;;;;;5049937;28;20051;-71
2023/02/09 03:07:22;;;;;;;13.15;7.22;;;2.60;62.30;;;;;;5051571;28;20052;-71
2023/02/09 03:09:52;;;;;;;13.32;7.00;;;2.60;62.50;;;;;;5051204;28;20057;-72
2023/02/09 03:12:39;;;;;;;12.13;7.40;;;2.60;63.30;;;;;;5030799;28;20125;-71
2023/02/09 03:15:08;;;;;;;14.23;6.88;;;2.60;63.50;;;;;;5048624;28;20029;-71
2023/02/09 03:17:58;;;;;;;13.63;7.57;;;2.60;63.20;;;;;;5051681;28;20017;-70
2023/02/09 03:20:23;;;;;;;;;;;2.60;63.20;;;;;;5040864;28;20455;-71
2023/02/09 03:22:57;;;;;;;14.70;7.50;;;2.60;64.50;;;;;;5048843;28;19952;-72
2023/02/09 03:25:33;;;;;;;15.32;6.47;;;2.60;63.20;;;;;;5048924;28;20017;-71
2023/02/09 03:28:07;;;;;;;12.38;6.65;;;2.60;62.50;;;;;;5060312;28;20644;-71
2023/02/09 03:30:34;;;;;;;13.38;7.85;;;2.50;62.40;;;;;;5052871;28;20171;-71
2023/02/09 03:33:01;;;;;;;12.73;7.45;;;2.50;61.90;;;;;;5047587;28;20029;-71
2023/02/09 03:35:35;;;;;;;15.95;8.10;;;2.50;61.60;;;;;;5045527;28;20390;-71
2023/02/09 03:38:05;;;;;;;12.40;6.55;;;2.50;62.70;;;;;;5041522;28;20021;-71
2023/02/09 03:40:31;;;;;;;13.35;6.40;;;2.40;62.20;;;;;;5049436;28;20382;-71
2023/02/09 03:42:59;;;;;;;13.93;7.60;;;2.40;61.80;;;;;;5047742;28;20036;-70
2023/02/09 03:45:25;;;;;;;15.35;7.50;;;2.50;62.60;;;;;;5048755;28;20086;-72
2023/02/09 03:47:50;;;;;;;15.45;6.65;;;2.40;61.90;;;;;;5047677;28;20028;-71
2023/02/09 03:50:16;;;;;;;14.25;7.28;;;2.40;61.80;;;;;;5046690;28;20021;-72
2023/02/09 03:52:42;;;;;;;12.73;7.38;;;2.40;61.80;;;;;;5047338;28;20024;-72
2023/02/09 03:55:07;;;;;;;12.35;6.90;;;2.40;61.70;;;;;;5049236;28;20056;-72
2023/02/09 03:57:35;;;;;;;16.38;7.38;;;2.40;61.70;;;;;;5049296;28;20028;-71
2023/02/09 04:00:00;;;;;;;12.73;6.82;;;2.40;61.70;;;;;;5050401;28;20467;-71
2023/02/09 04:02:26;;;;;;;15.13;7.82;;;2.40;61.70;;;;;;5050333;28;20060;-72
2023/02/09 04:04:52;;;;;;;16.38;7.55;;;2.40;63.80;;;;;;5049210;28;20064;-71
2023/02/09 04:07:18;;;;;;;14.68;7.22;;;2.40;63.50;;;;;;5047676;28;20025;-70
2023/02/09 04:09:43;;;;;;;11.60;6.45;;;2.40;64.30;;;;;;5030443;28;20450;-70
2023/02/09 04:12:09;;;;;;;14.55;7.85;;;2.40;63.20;;;;;;5048669;28;20039;-72
2023/02/09 04:14:35;;;;;;;13.63;6.95;;;2.30;62.80;;;;;;5049101;28;20025;-71
2023/02/09 04:17:00;;;;;;;15.35;7.70;;;2.40;62.80;;;;;;5047393;28;20035;-71
2023/02/09 04:19:26;;;;;;;11.27;7.25;;;2.30;62.30;;;;;;5048141;28;20032;-71
2023/02/09 04:21:51;;;;;;;16.05;7.68;;;2.30;62.20;;;;;;5049093;28;20095;-70
2023/02/09 04:24:18;;;;;;;12.43;5.95;;;2.30;62.80;;;;;;5050255;28;20075;-71
2023/02/09 04:26:43;;;;;;;13.60;6.50;;;2.30;64.20;;;;;;5049662;28;20033;-72
2023/02/09 04:29:09;;;;;;;13.30;7.25;;;2.30;68.80;;;;;;5048920;28;20051;-71
2023/02/09 04:31:34;;;;;;;14.88;7.60;;;2.20;64.60;;;;;;5049541;28;20024;-71
2023/02/09 04:34:00;;;;;;;14.73;7.60;;;2.20;63.90;;;;;;5050160;28;20386;-71
2023/02/09 04:36:26;;;;;;;13.93;7.97;;;2.20;63.30;;;;;;5049831;28;20475;-72
2023/02/09 04:38:52;;;;;;;11.95;6.75;;;2.20;63.10;;;;;;5043165;28;20040;-72
2023/02/09 04:41:17;;;;;;;14.40;7.60;;;2.20;62.90;;;;;;5049870;28;20025;-70
2023/02/09 04:43:44;;;;;;;14.38;7.07;;;2.10;63.10;;;;;;5049850;28;20474;-70
2023/02/09 04:46:16;;;;;;;17.20;8.00;;;2.10;64.50;;;;;;5047709;28;20048;-70
2023/02/09 04:48:42;;;;;;;13.88;7.68;;;2.10;63.70;;;;;;5042804;28;20059;-70
2023/02/09 04:51:07;;;;;;;18.83;8.15;;;2.20;63.50;;;;;;5050011;28;20141;-72
2023/02/09 04:53:33;;;;;;;15.30;7.80;;;2.10;63.20;;;;;;5049569;28;20096;-70
2023/02/09 04:55:59;;;;;;;14.25;7.82;;;2.10;63.20;;;;;;5049781;28;20025;-72
2023/02/09 05:01:21;;;;;;;13.25;7.28;;;2.20;63.50;;;;;;5030019;28;20103;-71
2023/02/09 05:03:46;;;;;;;12.88;6.90;;;2.20;63.90;;;;;;5047628;28;20064;-70
2023/02/09 05:06:12;;;;;;;13.40;7.20;;;2.20;64.80;;;;;;5049867;28;20060;-70
2023/02/09 05:08:38;;;;;;;14.32;7.35;;;2.20;64.10;;;;;;5048474;28;20396;-71
2023/02/09 05:11:04;;;;;;;17.48;7.50;;;2.20;63.50;;;;;;5049053;28;20546;-71
2023/02/09 05:13:29;;;;;;;19.30;9.23;;;2.20;64.70;;;;;;5049812;28;20044;-69
2023/02/09 05:15:55;;;;;;;22.25;9.18;;;2.20;63.80;;;;;;5046528;28;20025;-70
2023/02/09 05:18:21;;;;;;;19.65;8.32;;;2.20;63.50;;;;;;5038369;28;20031;-71
2023/02/09 05:20:47;;;;;;;20.58;8.48;;;2.20;63.40;;;;;;5048500;28;20055;-71
2023/02/09 05:23:14;;;;;;;16.90;7.40;;;2.10;63.40;;;;;;5048147;28;20451;-71
2023/02/09 05:25:40;;;;;;;27.23;10.27;;;2.10;64.70;;;;;;5048308;28;20036;-70
2023/02/09 05:28:06;;;;;;;16.67;8.18;;;2.20;64.10;;;;;;5048193;28;20041;-70
2023/02/09 05:30:32;;;;;;;17.45;8.27;;;2.10;63.50;;;;;;5037336;28;20021;-71
2023/02/09 05:32:58;;;;;;;16.95;8.10;;;2.10;64.10;;;;;;5048463;28;20025;-70
2023/02/09 05:35:24;;;;;;;20.30;10.13;;;2.10;64.90;;;;;;5048420;28;20068;-70
2023/02/09 05:37:50;;;;;;;13.48;7.35;;;2.10;64.10;;;;;;5045206;28;20052;-70
2023/02/09 05:40:15;;;;;;;14.88;7.68;;;2.10;64.80;;;;;;5048036;28;20021;-71
2023/02/09 05:42:41;;;;;;;14.10;7.65;;;2.00;64.60;;;;;;5044804;28;20056;-71
2023/02/09 05:45:08;;;;;;;19.02;8.50;;;2.00;64.00;;;;;;5050282;28;20032;-71
2023/02/09 05:47:34;;;;;;;15.63;7.93;;;2.00;64.00;;;;;;5049416;28;20021;-72
2023/02/09 05:49:59;;;;;;;15.43;7.60;;;2.00;64.70;;;;;;5046326;28;20040;-71
2023/02/09 05:52:25;;;;;;;16.23;7.70;;;2.00;65.10;;;;;;5050649;28;20522;-71
2023/02/09 05:54:51;;;;;;;14.55;7.78;;;2.00;65.80;;;;;;5049459;28;20025;-71
2023/02/09 05:57:17;;;;;;;13.75;8.70;;;2.00;65.00;;;;;;5050342;28;20021;-71
2023/02/09 05:59:42;;;;;;;16.73;8.32;;;2.00;64.80;;;;;;5046499;28;20087;-70
2023/02/09 06:02:08;;;;;;;15.65;8.77;;;2.00;65.50;;;;;;5048001;28;20404;-71
2023/02/09 06:04:34;;;;;;;17.65;8.20;;;2.00;65.90;;;;;;5050565;28;20465;-71
2023/02/09 06:07:00;;;;;;;15.82;8.15;;;1.90;65.60;;;;;;5050537;28;20025;-71
2023/02/09 06:09:26;;;;;;;13.77;8.52;;;1.90;65.40;;;;;;5048321;28;20021;-70
2023/02/09 06:11:52;;;;;;;16.33;8.32;;;2.00;65.20;;;;;;5050241;28;20021;-69
2023/02/09 06:14:17;;;;;;;13.82;8.10;;;2.00;65.10;;;;;;5050269;28;20440;-70
2023/02/09 06:16:43;;;;;;;16.88;8.05;;;2.00;65.00;;;;;;5049521;28;20486;-71
2023/02/09 06:19:17;;;;;;;14.25;7.90;;;2.00;64.90;;;;;;5045934;28;20036;-71
2023/02/09 06:21:43;;;;;;;15.50;8.32;;;2.00;64.80;;;;;;5049660;28;20542;-71
2023/02/09 06:24:10;;;;;;;19.63;9.18;;;2.00;65.20;;;;;;5050453;28;20117;-70
2023/02/09 06:26:36;;;;;;;13.25;7.05;;;1.90;64.90;;;;;;5050802;28;20052;-70
2023/02/09 06:29:02;;;;;;;16.33;8.05;;;2.00;67.60;;;;;;5058451;28;20033;-69
2023/02/09 06:31:28;;;;;;;17.77;9.80;;;1.90;66.10;;;;;;5055304;28;20032;-70
2023/02/09 06:33:54;;;;;;;13.73;6.90;;;2.00;65.30;;;;;;5051091;28;20779;-71
2023/02/09 06:36:19;;;;;;;15.35;9.20;;;2.00;65.40;;;;;;5049949;28;20406;-72
2023/02/09 06:38:45;;;;;;;16.08;7.78;;;2.00;65.20;;;;;;5042694;28;20028;-70
2023/02/09 06:41:10;;;;;;;16.50;8.65;;;2.00;65.50;;;;;;5050731;28;20025;-71
2023/02/09 06:43:36;;;;;;;18.98;8.27;;;2.00;65.40;;;;;;5050564;28;20407;-70
2023/02/09 06:46:09;;;;;;;20.60;9.13;;;1.90;65.30;;;;;;5045047;28;20040;-72
2023/02/09 06:48:36;;;;;;;16.52;8.45;;;1.90;65.30;;;;;;5041589;28;20116;-70
2023/02/09 06:51:11;;;;;;;20.00;9.50;;;1.90;65.10;;;;;;5041778;28;20040;-71
2023/02/09 06:53:37;;;;;;;15.48;7.80;;;2.00;65.20;;;;;;5045218;28;20032;-72
2023/02/09 06:56:04;;;;;;;17.48;9.38;;;2.00;65.00;;;;;;5043724;28;20025;-72
2023/02/09 06:58:29;;;;;;;18.90;9.50;;;2.00;65.30;;;;;;5040049;28;20039;-73
2023/02/09 07:00:59;;;;;;;18.42;8.75;;;2.00;64.90;;;;;;5038040;28;20504;-75
2023/02/09 07:03:25;;;;;;;17.60;8.73;;;2.10;65.00;;;;;;5037120;28;20570;-72
2023/02/09 07:05:51;;;;;;;15.80;8.43;;;2.10;64.90;;;;;;5038379;28;20055;-73
2023/02/09 07:08:16;;;;;;;16.92;8.65;;;2.10;64.60;;;;;;5041533;28;20068;-72
2023/02/09 07:10:42;;;;;;;16.70;8.50;;;2.10;64.80;;;;;;5040378;28;20026;-73
2023/02/09 07:13:08;;;;;;;14.32;8.30;;;2.00;64.70;;;;;;5043803;28;20029;-71
2023/02/09 07:15:34;;;;;;;14.63;7.78;;;2.00;64.70;;;;;;5047488;28;20028;-73
2023/02/09 07:18:00;;;;;;;16.58;7.80;;;2.00;64.80;;;;;;5040450;28;21068;-71
2023/02/09 07:20:25;;;;;;;17.58;8.15;;;2.00;65.10;;;;;;5036105;28;20608;-71
2023/02/09 07:22:51;;;;;;;17.15;8.25;;;2.00;65.60;;;;;;5039447;28;20042;-71
2023/02/09 07:25:17;;;;;;;13.70;7.93;;;2.00;65.40;;;;;;5036294;28;20028;-73
2023/02/09 07:27:43;;;;;;;14.07;8.30;;;2.00;65.20;;;;;;5046299;28;20116;-73
2023/02/09 07:30:10;;;;;;;16.95;10.23;;;2.10;65.20;;;;;;5046404;28;20036;-73
2023/02/09 07:32:38;;;;;;;19.50;8.95;;;2.10;65.30;;;;;;5042747;28;20028;-73
2023/02/09 07:35:04;;;;;;;19.00;9.00;;;2.20;65.30;;;;;;5049272;28;20426;-74
2023/02/09 07:37:29;;;;;;;15.73;8.30;;;2.30;65.70;;;;;;5049098;28;20017;-72
2023/02/09 07:39:56;;;;;;;16.13;8.77;;;2.40;66.60;;;;;;5049077;28;20031;-73
2023/02/09 07:42:22;;;;;;;17.38;9.00;;;2.50;74.70;;;;;;5047649;28;20040;-73
2023/02/09 07:44:47;;;;;;;18.58;8.98;;;2.60;67.30;;;;;;5045900;28;20037;-73
2023/02/09 07:47:13;;;;;;;17.13;9.48;;;2.70;65.20;;;;;;5047310;28;20032;-73
2023/02/09 07:49:39;;;;;;;16.63;9.77;;;2.70;64.50;;;;;;5046701;28;20051;-72
2023/02/09 07:52:04;;;;;;;18.88;10.15;;;2.80;63.90;;;;;;5048854;28;20402;-74
2023/02/09 07:54:30;;;;;;;19.15;9.75;;;2.80;63.90;;;;;;5049197;28;20666;-74
2023/02/09 07:56:56;;;;;;;18.17;7.85;;;2.90;64.00;;;;;;5043689;28;20103;-74
2023/02/09 07:59:21;;;;;;;18.70;9.07;;;2.90;63.80;;;;;;5043564;28;20076;-73
2023/02/09 08:01:47;;;;;;;18.80;9.07;;;2.90;64.90;;;;;;5048725;28;20025;-74
2023/02/09 08:04:13;;;;;;;15.50;10.00;;;2.90;64.90;;;;;;5049717;28;20119;-74
2023/02/09 08:06:44;;;;;;;23.35;9.70;;;3.00;64.50;;;;;;5049339;28;20079;-73
2023/02/09 08:09:15;;;;;;;17.70;10.85;;;3.10;64.50;;;;;;5049766;28;20036;-73
2023/02/09 08:11:44;;;;;;;17.70;10.95;;;3.20;64.40;;;;;;5048669;28;20540;-73
2023/02/09 08:14:34;;;;;;;18.33;8.50;;;3.30;63.70;;;;;;5050253;28;20322;-73
2023/02/09 08:17:19;;;;;;;16.27;9.82;;;3.30;63.30;;;;;;5046162;28;20083;-73
2023/02/09 08:19:59;;;;;;;17.00;9.20;;;3.40;63.20;;;;;;5048788;28;20036;-73
2023/02/09 08:22:28;;;;;;;16.85;9.00;;;3.60;62.90;;;;;;5049407;28;20029;-73
2023/02/09 08:24:54;;;;;;;16.92;10.07;;;3.60;63.00;;;;;;5042105;28;20028;-73
2023/02/09 08:27:20;;;;;;;16.58;9.15;;;3.60;64.20;;;;;;5048112;28;20567;-74
2023/02/09 08:29:45;;;;;;;17.48;9.65;;;3.70;63.60;;;;;;5048214;28;20059;-73
2023/02/09 08:32:11;;;;;;;15.30;6.75;;;3.80;62.60;;;;;;5048785;28;20033;-73
2023/02/09 08:34:37;;;;;;;12.80;6.72;;;3.90;65.90;;;;;;5040267;28;20021;-73
2023/02/09 08:37:02;;;;;;;10.77;5.10;;;3.90;74.40;;;;;;5049572;28;20029;-73
2023/02/09 08:39:29;;;;;;;18.75;9.48;;;4.10;84.50;;;;;;5054374;28;20024;-74
2023/02/09 08:41:56;;;;;;;17.25;10.10;;;4.20;77.90;;;;;;5052716;28;20056;-74
2023/02/09 08:44:21;;;;;;;17.10;10.30;;;4.30;70.30;;;;;;5044992;28;20029;-73
2023/02/09 08:46:47;;;;;;;17.08;9.10;;;4.30;65.70;;;;;;5052922;28;20025;-76
2023/02/09 08:49:12;;;;;;;15.77;10.10;;;4.50;70.50;;;;;;5052090;28;20032;-74
2023/02/09 08:51:38;;;;;;;20.27;9.50;;;4.60;64.00;;;;;;5049245;28;20139;-73
2023/02/09 08:54:03;;;;;;;15.70;8.75;;;4.60;61.90;;;;;;5052020;28;20084;-74
2023/02/09 08:56:29;;;;;;;18.80;9.82;;;4.60;61.20;;;;;;5055879;28;20029;-72
2023/02/09 08:58:55;;;;;;;22.58;11.00;;;4.60;60.90;;;;;;5049543;28;20025;-73
2023/02/09 09:01:20;;;;;;;17.58;10.70;;;4.60;61.00;;;;;;5045172;28;20501;-74
2023/02/09 09:03:46;;;;;;;17.35;9.73;;;4.70;60.80;;;;;;5049178;28;20131;-74
2023/02/09 09:06:12;;;;;;;18.50;9.32;;;4.80;60.50;;;;;;5049387;28;20021;-74
2023/02/09 09:08:39;;;;;;;17.92;8.98;;;4.90;60.40;;;;;;5049014;28;20104;-75
2023/02/09 09:11:09;;;;;;;17.10;9.60;;;5.00;61.10;;;;;;5048600;28;20029;-74
2023/02/09 09:13:34;;;;;;;18.95;10.18;;;4.90;60.20;;;;;;5050177;28;20032;-74
2023/02/09 09:16:01;;;;;;;21.23;10.48;;;4.80;63.20;;;;;;5050118;28;20018;-73
2023/02/09 09:18:26;;;;;;;20.23;9.40;;;4.70;61.00;;;;;;5052722;28;20051;-73
2023/02/09 09:20:54;;;;;;;16.25;10.40;;;4.70;60.60;;;;;;5052154;28;20021;-74
2023/02/09 09:23:20;;;;;;;21.92;10.52;;;4.70;60.80;;;;;;5050313;28;20037;-74
2023/02/09 09:25:46;;;;;;;18.50;9.98;;;4.80;60.60;;;;;;5045900;28;20108;-74
2023/02/09 09:28:12;;;;;;;21.92;11.35;;;4.80;60.10;;;;;;5051244;28;20077;-74
2023/02/09 09:30:38;;;;;;;18.45;9.52;;;4.90;60.00;;;;;;5045835;28;20097;-74
2023/02/09 09:33:04;;;;;;;16.63;9.10;;;5.00;60.00;;;;;;5053739;28;20455;-73
2023/02/09 09:35:30;;;;;;;17.95;10.20;;;5.00;61.10;;;;;;5052096;28;20556;-72
2023/02/09 09:37:57;;;;;;;18.45;10.80;;;5.10;60.10;;;;;;5052574;28;20036;-74
2023/02/09 09:40:28;;;;;;;17.35;10.25;;;5.30;61.50;;;;;;5049965;28;20027;-73
2023/02/09 09:42:59;;;;;;;17.08;9.98;;;5.30;59.50;;;;;;5048745;28;20037;-74
2023/02/09 09:45:28;;;;;;;13.38;8.88;;;5.40;60.10;;;;;;5043353;28;20694;-74
2023/02/09 09:47:57;;;;;;;19.38;11.10;;;5.50;60.50;;;;;;5048502;28;20017;-73
2023/02/09 09:50:34;;;;;;;16.00;9.55;;;5.50;59.40;;;;;;5041376;28;20446;-74
2023/02/09 09:53:22;;;;;;;19.02;9.70;;;5.60;58.80;;;;;;5051314;28;20036;-72
2023/02/09 09:55:58;;;;;;;22.35;10.60;;;5.60;60.20;;;;;;5041537;28;20132;-72
2023/02/09 09:58:27;;;;;;;16.02;9.60;;;5.60;59.40;;;;;;5052040;28;20029;-73
2023/02/09 10:00:53;;;;;;;19.83;10.10;;;5.70;59.00;;;;;;5059945;28;20032;-74
2023/02/09 10:03:21;;;;;;;17.70;10.25;;;5.80;58.60;;;;;;5048330;28;20483;-74
2023/02/09 10:05:50;;;;;;;19.60;11.52;;;5.90;58.20;;;;;;5052318;28;20033;-74
2023/02/09 10:08:27;;;;;;;17.08;10.40;;;5.90;57.80;;;;;;5052858;28;20027;-73
2023/02/09 10:11:02;;;;;;;20.67;10.27;;;5.80;58.00;;;;;;5052017;28;20029;-73
2023/02/09 10:13:38;;;;;;;13.75;8.75;;;5.90;59.50;;;;;;5051911;28;20044;-74
2023/02/09 10:16:20;;;;;;;17.70;10.07;;;5.90;58.80;;;;;;5054059;28;20033;-74
2023/02/09 10:18:54;;;;;;;15.40;9.73;;;6.00;58.50;;;;;;5053710;28;20037;-73
2023/02/09 10:21:25;;;;;;;15.70;10.00;;;6.10;58.20;;;;;;5053445;28;20029;-73
2023/02/09 10:24:10;;;;;;;18.00;9.88;;;6.00;57.60;;;;;;5057924;28;20045;-72
2023/02/09 10:26:36;;;;;;;17.48;9.13;;;6.30;58.00;;;;;;5055389;28;20077;-73
2023/02/09 10:29:11;;;;;;;18.05;10.55;;;6.50;57.00;;;;;;5051855;28;20024;-73
2023/02/09 10:31:42;;;;;;;19.58;10.13;;;6.70;57.80;;;;;;5059222;28;20044;-72
2023/02/09 10:34:07;;;;;;;18.90;9.85;;;6.80;56.80;;;;;;5059708;28;20029;-73
2023/02/09 10:36:38;;;;;;;18.27;10.98;;;6.90;57.80;;;;;;5063218;28;20032;-73
2023/02/09 10:39:19;;;;;;;18.15;10.75;;;7.10;56.60;;;;;;5061364;28;20028;-74
2023/02/09 10:41:48;;;;;;;18.98;11.43;;;7.30;55.80;;;;;;5065619;28;20025;-74
2023/02/09 10:44:27;;;;;;;20.53;9.60;;;7.40;54.80;;;;;;5065299;28;20426;-73
2023/02/09 10:47:27;;;;;;;19.33;11.13;;;7.60;57.50;;;;;;5056645;28;20479;-73
2023/02/09 10:50:10;;;;;;;19.67;11.18;;;7.70;55.50;;;;;;5057014;28;20017;-72
2023/02/09 10:52:53;;;;;;;16.73;10.38;;;7.80;54.10;;;;;;5059876;28;20056;-74
2023/02/09 10:55:23;;;;;;;14.77;9.60;;;7.90;54.50;;;;;;5063341;28;20063;-73
2023/02/09 10:57:49;;;;;;;17.50;11.18;;;8.10;53.70;;;;;;5065825;28;20024;-73
2023/02/09 11:00:15;;;;;;;15.77;9.93;;;8.00;54.00;;;;;;5064536;28;20037;-72
2023/02/09 11:02:52;;;;;;;20.00;11.02;;;8.00;54.50;;;;;;5064564;28;20433;-73
2023/02/09 11:05:20;;;;;;;19.58;11.10;;;7.90;54.10;;;;;;5065788;28;20021;-73
2023/02/09 11:07:58;;;;;;;19.58;11.13;;;8.10;54.40;;;;;;5065154;28;20094;-73
2023/02/09 11:10:26;;;;;;;19.45;10.60;;;8.20;54.40;;;;;;5055838;28;20032;-74
2023/02/09 11:12:54;;;;;;;18.98;10.23;;;8.20;54.00;;;;;;5059901;28;20031;-74
2023/02/09 11:15:26;;;;;;;17.85;10.82;;;8.30;55.00;;;;;;5065318;28;20036;-74
2023/02/09 11:18:04;;;;;;;20.42;12.77;;;8.20;56.00;;;;;;5056720;28;20017;-73
2023/02/09 11:20:34;;;;;;;21.58;12.82;;;8.20;55.60;;;;;;5050032;28;20021;-74
2023/02/09 11:23:08;;;;;;;25.33;16.33;;;8.30;57.40;;;;;;5059589;28;20052;-75
2023/02/09 11:26:00;;;;;;;25.23;15.88;;;8.40;54.90;;;;;;5055478;28;20025;-74
2023/02/09 11:28:49;;;;;;;25.85;15.07;;;8.50;54.90;;;;;;5050929;28;20517;-74
2023/02/09 11:31:39;;;;;;;26.45;14.85;;;8.70;55.20;;;;;;5050167;28;20059;-74
2023/02/09 11:34:34;;;;;;;25.08;13.52;;;8.60;53.40;;;;;;5048841;28;20099;-74
2023/02/09 11:37:21;;;;;;;25.90;16.70;;;8.50;58.10;;;;;;5047646;28;20025;-74
2023/02/09 11:40:06;;;;;;;23.58;14.30;;;8.50;54.90;;;;;;5049138;28;20021;-73
2023/02/09 11:42:43;;;;;;;18.50;11.88;;;8.40;54.00;;;;;;5048543;28;20033;-73
2023/02/09 11:45:27;;;;;;;24.02;13.57;;;8.20;54.60;;;;;;5047865;28;20032;-74
2023/02/09 11:48:07;;;;;;;22.92;12.52;;;8.10;54.70;;;;;;5043832;28;20098;-74
2023/02/09 11:51:10;;;;;;;26.17;13.88;;;8.10;56.80;;;;;;5038566;28;20033;-75
2023/02/09 11:53:39;;;;;;;19.48;11.93;;;8.10;55.80;;;;;;5038894;28;20588;-74
2023/02/09 11:56:09;;;;;;;16.70;10.70;;;8.00;56.10;;;;;;5047222;28;20047;-73
2023/02/09 11:58:42;;;;;;;17.20;11.07;;;8.10;60.70;;;;;;5047613;28;20029;-73
2023/02/09 12:01:37;;;;;;;19.13;11.68;;;8.10;61.10;;;;;;5048774;28;20104;-74
2023/02/09 12:04:05;;;;;;;19.90;12.52;;;8.10;59.60;;;;;;5043190;28;20032;-73
2023/02/09 12:06:51;;;;;;;24.90;14.20;;;8.20;57.90;;;;;;5049096;28;20024;-74
2023/02/09 12:09:41;;;;;;;19.45;13.00;;;8.20;56.90;;;;;;5049323;28;20025;-74
2023/02/09 12:12:17;;;;;;;23.27;12.48;;;8.10;57.10;;;;;;5047221;28;20025;-74
2023/02/09 12:15:01;;;;;;;20.27;11.38;;;8.00;57.20;;;;;;5047210;28;20219;-73
2023/02/09 12:17:44;;;;;;;20.33;11.23;;;8.10;57.50;;;;;;5048240;28;20028;-73
2023/02/09 12:20:27;;;;;;;19.38;12.35;;;8.10;58.70;;;;;;5046982;28;20029;-73
2023/02/09 12:23:03;;;;;;;20.13;12.80;;;8.20;57.80;;;;;;5041607;28;20090;-73
2023/02/09 12:25:36;;;;;;;22.40;12.90;;;8.20;57.70;;;;;;5047043;28;20025;-73
2023/02/09 12:28:08;;;;;;;24.42;14.15;;;8.20;57.60;;;;;;5047314;28;20041;-73
2023/02/09 12:30:39;;;;;;;21.10;13.00;;;8.10;58.10;;;;;;5045620;28;20029;-73
2023/02/09 12:33:23;;;;;;;18.50;12.43;;;8.20;58.70;;;;;;5048311;28;20040;-73
2023/02/09 12:36:08;;;;;;;22.45;12.68;;;8.00;59.20;;;;;;5043510;28;20029;-74
2023/02/09 12:38:49;;;;;;;17.83;13.10;;;8.10;58.70;;;;;;5046289;28;20014;-73
2023/02/09 12:41:21;;;;;;;17.63;10.95;;;8.10;58.80;;;;;;5043334;28;20117;-73
2023/02/09 12:43:48;;;;;;;20.73;12.10;;;8.10;61.30;;;;;;5047213;28;20047;-73
2023/02/09 12:46:22;;;;;;;16.23;11.18;;;8.20;60.40;;;;;;5047935;28;20480;-74
2023/02/09 12:48:48;;;;;;;23.10;13.30;;;8.20;60.50;;;;;;5048104;28;20043;-72
2023/02/09 12:51:38;;;;;;;19.85;13.45;;;8.20;60.10;;;;;;5048233;28;20013;-73
2023/02/09 12:54:29;;;;;;;21.63;13.52;;;8.10;59.70;;;;;;5051651;28;20382;-74
2023/02/09 12:57:15;;;;;;;24.33;14.68;;;8.10;60.40;;;;;;5051625;28;20035;-74
2023/02/09 12:59:50;;;;;;;21.75;13.73;;;8.00;61.40;;;;;;5051027;28;20056;-74
2023/02/09 13:02:41;;;;;;;20.13;11.88;;;7.90;61.30;;;;;;5051493;28;20032;-73
2023/02/09 13:05:25;;;;;;;23.13;13.10;;;8.00;63.20;;;;;;5052388;28;20025;-75
2023/02/09 13:08:14;;;;;;;23.30;14.52;;;8.10;64.90;;;;;;5051818;28;20036;-73